createdAt,value
2018-09-09T00:01:14.566Z,21.80
2018-09-09T00:03:44.439Z,21.70
2018-09-09T00:06:14.298Z,21.70
2018-09-09T00:08:44.194Z,21.70
2018-09-09T00:11:14.063Z,21.70
2018-09-09T00:13:43.930Z,21.60
2018-09-09T00:16:13.806Z,21.60
2018-09-09T00:18:43.688Z,21.60
2018-09-09T00:21:13.559Z,21.70
2018-09-09T00:23:43.432Z,21.60
2018-09-09T00:26:13.294Z,21.70
2018-09-09T00:28:43.163Z,21.70
2018-09-09T00:31:13.043Z,21.70
2018-09-09T00:33:42.918Z,21.70
2018-09-09T00:36:12.823Z,21.70
2018-09-09T00:38:42.699Z,21.70
2018-09-09T00:41:12.559Z,21.70
2018-09-09T00:43:42.427Z,21.70
2018-09-09T00:46:12.295Z,21.70
2018-09-09T00:48:42.171Z,21.70
2018-09-09T00:52:15.826Z,21.70
2018-09-09T00:54:45.699Z,21.70
2018-09-09T00:57:15.812Z,21.60
2018-09-09T00:59:45.691Z,21.50
2018-09-09T01:02:15.573Z,21.40
2018-09-09T01:04:45.451Z,21.40
2018-09-09T01:07:15.316Z,21.30
2018-09-09T01:09:45.199Z,21.30
2018-09-09T01:12:15.057Z,21.30
2018-09-09T01:14:44.930Z,21.20
2018-09-09T01:17:14.794Z,21.20
2018-09-09T01:19:44.654Z,21.20
2018-09-09T01:22:14.510Z,21.20
2018-09-09T01:24:44.393Z,21.20
2018-09-09T01:27:14.265Z,21.20
2018-09-09T01:29:44.142Z,21.20
2018-09-09T01:32:14.008Z,21.20
2018-09-09T01:34:43.883Z,21.10
2018-09-09T01:37:13.755Z,21.10
2018-09-09T01:39:43.640Z,21.10
2018-09-09T01:42:13.530Z,21.10
2018-09-09T01:44:43.390Z,21.10
2018-09-09T01:47:16.074Z,21.00
2018-09-09T01:49:45.991Z,21.00
2018-09-09T01:52:15.862Z,21.00
2018-09-09T01:54:45.738Z,20.90
2018-09-09T01:57:15.607Z,20.90
2018-09-09T01:59:45.503Z,21.00
2018-09-09T02:02:15.386Z,20.90
2018-09-09T02:04:52.011Z,21.00
2018-09-09T02:07:21.863Z,21.00
2018-09-09T02:09:51.750Z,21.00
2018-09-09T02:12:21.714Z,21.00
2018-09-09T02:14:51.607Z,21.00
2018-09-09T02:17:21.480Z,21.00
2018-09-09T02:19:51.352Z,21.00
2018-09-09T02:22:21.254Z,21.00
2018-09-09T02:24:51.130Z,21.10
2018-09-09T02:27:20.994Z,21.10
2018-09-09T02:29:50.863Z,21.10
2018-09-09T02:32:20.736Z,21.10
2018-09-09T02:34:50.618Z,21.10
2018-09-09T02:37:20.479Z,21.10
2018-09-09T02:39:50.374Z,21.00
2018-09-09T02:42:20.244Z,21.00
2018-09-09T02:44:50.124Z,21.00
2018-09-09T02:47:19.985Z,21.00
2018-09-09T02:49:49.866Z,20.90
2018-09-09T02:52:19.738Z,20.90
2018-09-09T02:54:56.349Z,20.90
2018-09-09T02:57:26.234Z,20.80
2018-09-09T02:59:56.111Z,20.80
2018-09-09T03:02:25.986Z,20.80
2018-09-09T03:04:55.858Z,20.80
2018-09-09T03:07:25.736Z,20.70
2018-09-09T03:09:55.836Z,20.70
2018-09-09T03:12:25.702Z,20.70
2018-09-09T03:14:55.575Z,20.70
2018-09-09T03:17:25.442Z,20.70
2018-09-09T03:19:55.341Z,20.60
2018-09-09T03:22:25.210Z,20.60
2018-09-09T03:24:55.118Z,20.60
2018-09-09T03:27:24.978Z,20.60
2018-09-09T03:29:54.859Z,20.50
2018-09-09T03:32:24.737Z,20.50
2018-09-09T03:34:54.616Z,20.50
2018-09-09T03:37:24.536Z,20.50
2018-09-09T03:39:54.411Z,20.50
2018-09-09T03:42:24.275Z,20.50
2018-09-09T03:44:54.146Z,20.50
2018-09-09T03:47:24.007Z,20.50
2018-09-09T03:49:53.935Z,20.50
2018-09-09T03:52:23.811Z,20.50
2018-09-09T03:54:53.725Z,20.50
2018-09-09T03:57:23.602Z,20.50
2018-09-09T03:59:53.468Z,20.50
2018-09-09T04:02:23.335Z,20.50
2018-09-09T04:04:53.363Z,20.50
2018-09-09T04:07:23.249Z,20.50
2018-09-09T04:09:53.133Z,20.50
2018-09-09T04:12:23.006Z,20.50
2018-09-09T04:14:52.875Z,20.50
2018-09-09T04:17:22.760Z,20.60
2018-09-09T04:19:52.654Z,20.60
2018-09-09T04:22:22.538Z,20.50
2018-09-09T04:24:52.407Z,20.50
2018-09-09T04:27:22.266Z,20.50
2018-09-09T04:29:52.146Z,20.50
2018-09-09T04:32:22.037Z,20.50
2018-09-09T04:34:51.904Z,20.40
2018-09-09T04:37:21.791Z,20.40
2018-09-09T04:39:51.671Z,20.40
2018-09-09T04:42:21.550Z,20.30
2018-09-09T04:44:51.427Z,20.30
2018-09-09T04:47:21.314Z,20.20
2018-09-09T04:49:51.190Z,20.20
2018-09-09T04:52:21.055Z,20.20
2018-09-09T04:54:50.927Z,20.20
2018-09-09T04:57:20.795Z,20.20
2018-09-09T04:59:50.679Z,20.20
2018-09-09T05:02:20.548Z,20.20
2018-09-09T05:04:50.424Z,20.20
2018-09-09T05:07:20.300Z,20.20
2018-09-09T05:09:50.166Z,20.20
2018-09-09T05:12:20.039Z,20.20
2018-09-09T05:14:49.944Z,20.10
2018-09-09T05:17:19.815Z,20.10
2018-09-09T05:19:49.759Z,20.10
2018-09-09T05:22:19.646Z,20.00
2018-09-09T05:24:49.516Z,20.00
2018-09-09T05:27:19.383Z,20.00
2018-09-09T05:29:49.256Z,20.00
2018-09-09T05:32:19.157Z,20.00
2018-09-09T05:34:49.045Z,20.00
2018-09-09T05:37:19.207Z,20.00
2018-09-09T05:39:49.072Z,20.00
2018-09-09T05:42:19.002Z,20.00
2018-09-09T05:44:48.948Z,20.00
2018-09-09T05:47:18.699Z,20.10
2018-09-09T05:49:48.551Z,20.10
2018-09-09T05:52:18.432Z,20.10
2018-09-09T05:54:48.315Z,20.20
2018-09-09T05:57:18.194Z,20.20
2018-09-09T05:59:48.060Z,20.20
2018-09-09T06:02:17.934Z,20.30
2018-09-09T06:04:47.796Z,20.30
2018-09-09T06:07:17.685Z,20.30
2018-09-09T06:09:47.563Z,20.40
2018-09-09T06:12:17.427Z,20.40
2018-09-09T06:14:47.282Z,20.40
2018-09-09T06:17:17.150Z,20.40
2018-09-09T06:19:47.110Z,20.40
2018-09-09T06:22:16.982Z,20.40
2018-09-09T06:24:46.870Z,20.40
2018-09-09T06:27:16.746Z,20.40
2018-09-09T06:29:46.616Z,20.40
2018-09-09T06:32:16.483Z,20.40
2018-09-09T06:34:46.350Z,20.40
2018-09-09T06:37:16.235Z,20.40
2018-09-09T06:39:46.106Z,20.40
2018-09-09T06:42:15.983Z,20.50
2018-09-09T06:44:45.860Z,20.50
2018-09-09T06:47:15.751Z,20.50
2018-09-09T06:49:45.615Z,20.50
2018-09-09T06:52:15.502Z,20.60
2018-09-09T06:54:45.380Z,20.60
2018-09-09T06:57:15.235Z,20.70
2018-09-09T06:59:45.111Z,20.70
2018-09-09T07:02:15.015Z,20.70
2018-09-09T07:04:44.935Z,20.80
2018-09-09T07:07:14.819Z,20.80
2018-09-09T07:09:44.698Z,20.90
2018-09-09T07:12:14.565Z,20.90
2018-09-09T07:14:44.435Z,20.90
2018-09-09T07:17:14.380Z,21.00
2018-09-09T07:19:44.188Z,21.00
2018-09-09T07:22:14.065Z,21.10
2018-09-09T07:24:43.916Z,21.10
2018-09-09T07:27:13.806Z,21.20
2018-09-09T07:29:44.224Z,21.20
2018-09-09T07:32:14.122Z,21.30
2018-09-09T07:34:43.982Z,21.40
2018-09-09T07:37:14.830Z,21.40
2018-09-09T07:39:44.623Z,21.50
2018-09-09T07:42:14.502Z,21.50
2018-09-09T07:44:44.371Z,21.60
2018-09-09T07:47:15.118Z,21.70
2018-09-09T07:49:44.992Z,21.70
2018-09-09T07:52:15.147Z,21.80
2018-09-09T07:54:45.299Z,21.90
2018-09-09T07:57:16.250Z,21.90
2018-09-09T07:59:46.122Z,22.00
2018-09-09T08:02:16.009Z,22.10
2018-09-09T08:04:45.884Z,22.20
2018-09-09T08:07:15.800Z,22.20
2018-09-09T08:09:45.665Z,22.30
2018-09-09T08:12:15.551Z,22.30
2018-09-09T08:14:45.407Z,22.40
2018-09-09T08:17:15.282Z,22.50
2018-09-09T08:19:45.149Z,22.60
2018-09-09T08:22:15.031Z,22.60
2018-09-09T08:24:44.894Z,22.70
2018-09-09T08:27:14.771Z,22.70
2018-09-09T08:29:51.310Z,22.80
2018-09-09T08:32:21.186Z,22.80
2018-09-09T08:34:51.155Z,22.90
2018-09-09T08:37:21.600Z,22.90
2018-09-09T08:39:51.461Z,22.90
2018-09-09T08:42:21.331Z,23.00
2018-09-09T08:44:51.216Z,23.00
2018-09-09T08:47:21.168Z,23.10
2018-09-09T08:49:51.052Z,23.10
2018-09-09T08:52:20.924Z,23.20
2018-09-09T08:54:50.804Z,23.20
2018-09-09T08:57:20.677Z,23.30
2018-09-09T08:59:50.646Z,23.30
2018-09-09T09:02:20.503Z,23.40
2018-09-09T09:04:50.383Z,23.40
2018-09-09T09:07:20.258Z,23.40
2018-09-09T09:09:50.127Z,23.50
2018-09-09T09:12:20.016Z,23.50
2018-09-09T09:14:49.923Z,23.50
2018-09-09T09:17:19.778Z,23.60
2018-09-09T09:19:49.642Z,23.60
2018-09-09T09:22:19.516Z,23.70
2018-09-09T09:24:49.393Z,23.70
2018-09-09T09:27:19.291Z,23.80
2018-09-09T09:29:54.467Z,23.80
2018-09-09T09:32:25.050Z,23.90
2018-09-09T09:34:55.994Z,23.90
2018-09-09T09:37:26.655Z,24.00
2018-09-09T09:39:56.583Z,24.10
2018-09-09T09:42:27.484Z,24.20
2018-09-09T09:44:57.359Z,24.20
2018-09-09T09:47:27.240Z,24.30
2018-09-09T09:49:57.103Z,24.30
2018-09-09T09:52:27.019Z,24.40
2018-09-09T09:54:56.865Z,24.50
2018-09-09T09:57:26.728Z,24.60
2018-09-09T09:59:56.594Z,24.60
2018-09-09T10:02:26.480Z,24.70
2018-09-09T10:04:56.355Z,24.70
2018-09-09T10:07:26.275Z,24.80
2018-09-09T10:09:56.179Z,24.90
2018-09-09T10:12:26.047Z,24.90
2018-09-09T10:14:55.944Z,25.00
2018-09-09T10:17:25.807Z,25.10
2018-09-09T10:19:55.679Z,25.30
2018-09-09T10:22:25.555Z,25.40
2018-09-09T10:24:55.436Z,25.50
2018-09-09T10:27:25.289Z,25.60
2018-09-09T10:29:55.230Z,25.80
2018-09-09T10:32:25.198Z,26.00
2018-09-09T10:34:55.067Z,26.20
2018-09-09T10:37:24.969Z,26.30
2018-09-09T10:39:54.847Z,26.50
2018-09-09T10:42:24.740Z,26.60
2018-09-09T10:44:54.610Z,26.60
2018-09-09T10:47:24.466Z,26.60
2018-09-09T10:49:54.399Z,26.60
2018-09-09T10:52:24.266Z,26.60
2018-09-09T10:54:54.139Z,26.60
2018-09-09T10:57:24.011Z,26.60
2018-09-09T10:59:53.889Z,26.60
2018-09-09T11:02:23.785Z,26.50
2018-09-09T11:04:53.747Z,26.50
2018-09-09T11:07:23.624Z,26.50
2018-09-09T11:09:53.512Z,26.40
2018-09-09T11:12:30.030Z,26.40
2018-09-09T11:15:01.114Z,26.40
2018-09-09T11:17:31.635Z,26.30
2018-09-09T11:20:01.521Z,26.30
2018-09-09T11:22:31.387Z,26.30
2018-09-09T11:25:01.259Z,26.30
2018-09-09T11:27:31.119Z,26.20
2018-09-09T11:30:01.078Z,26.20
2018-09-09T11:32:30.851Z,26.20
2018-09-09T11:35:00.721Z,26.20
2018-09-09T11:37:30.585Z,26.20
2018-09-09T11:40:00.455Z,26.10
2018-09-09T11:42:30.315Z,26.10
2018-09-09T11:45:00.183Z,26.10
2018-09-09T11:47:30.040Z,26.10
2018-09-09T11:49:59.906Z,26.00
2018-09-09T11:52:30.236Z,26.00
2018-09-09T11:55:00.103Z,26.00
2018-09-09T11:57:29.967Z,26.00
2018-09-09T11:59:59.835Z,26.00
2018-09-09T12:02:29.724Z,26.00
2018-09-09T12:04:59.590Z,26.00
2018-09-09T12:07:29.459Z,26.00
2018-09-09T12:10:00.329Z,26.00
2018-09-09T12:12:30.202Z,26.00
2018-09-09T12:15:00.073Z,26.00
2018-09-09T12:17:29.938Z,25.90
2018-09-09T12:20:00.387Z,26.00
2018-09-09T12:22:30.252Z,25.90
2018-09-09T12:25:00.135Z,26.00
2018-09-09T12:27:30.003Z,25.90
2018-09-09T12:29:59.879Z,26.00
2018-09-09T12:32:29.764Z,26.00
2018-09-09T12:34:59.624Z,25.90
2018-09-09T12:37:29.499Z,26.00
2018-09-09T12:39:59.379Z,26.00
2018-09-09T12:42:29.303Z,25.90
2018-09-09T12:46:06.279Z,26.00
2018-09-09T12:48:41.545Z,26.00
2018-09-09T12:51:11.412Z,26.00
2018-09-09T12:53:41.279Z,26.00
2018-09-09T12:56:11.155Z,26.00
2018-09-09T12:58:41.030Z,26.00
2018-09-09T13:01:10.894Z,26.00
2018-09-09T13:03:40.756Z,26.10
2018-09-09T13:06:10.640Z,26.10
2018-09-09T13:08:40.578Z,26.10
2018-09-09T13:11:10.450Z,26.10
2018-09-09T13:13:40.314Z,26.20
2018-09-09T13:16:10.191Z,26.20
2018-09-09T13:18:40.055Z,26.20
2018-09-09T13:21:10.001Z,26.30
2018-09-09T13:23:39.864Z,26.20
2018-09-09T13:26:09.734Z,26.30
2018-09-09T13:28:39.600Z,26.30
2018-09-09T13:31:09.466Z,26.30
2018-09-09T13:33:39.338Z,26.30
2018-09-09T13:36:09.235Z,26.30
2018-09-09T13:38:39.103Z,26.30
2018-09-09T13:41:08.987Z,26.30
2018-09-09T13:43:38.848Z,26.30
2018-09-09T13:46:08.727Z,26.30
2018-09-09T13:48:38.591Z,26.30
2018-09-09T13:51:08.467Z,26.30
2018-09-09T13:53:38.327Z,26.20
2018-09-09T13:56:08.206Z,26.30
2018-09-09T13:58:38.079Z,26.20
2018-09-09T14:01:07.964Z,26.30
2018-09-09T14:03:37.944Z,26.30
2018-09-09T14:06:07.867Z,26.20
2018-09-09T14:08:37.742Z,26.30
2018-09-09T14:11:07.675Z,26.20
2018-09-09T14:13:37.799Z,26.20
2018-09-09T14:16:08.411Z,26.30
2018-09-09T14:18:38.292Z,26.30
2018-09-09T14:21:08.309Z,26.30
2018-09-09T14:23:38.172Z,26.30
2018-09-09T14:26:08.151Z,26.30
2018-09-09T14:28:43.761Z,26.30
2018-09-09T14:31:13.683Z,26.30
2018-09-09T14:33:43.610Z,26.30
2018-09-09T14:36:13.542Z,26.30
2018-09-09T14:38:43.438Z,26.30
2018-09-09T14:41:13.406Z,26.30
2018-09-09T14:43:43.264Z,26.40
2018-09-09T14:46:13.458Z,26.40
2018-09-09T14:48:43.271Z,26.40
2018-09-09T14:51:13.127Z,26.40
2018-09-09T14:53:42.983Z,26.40
2018-09-09T14:56:12.863Z,26.50
2018-09-09T14:58:42.740Z,26.50
2018-09-09T15:01:12.603Z,26.50
2018-09-09T15:03:42.588Z,26.50
2018-09-09T15:06:12.481Z,26.50
2018-09-09T15:08:42.362Z,26.50
2018-09-09T15:11:12.323Z,26.60
2018-09-09T15:13:48.870Z,26.60
2018-09-09T15:16:18.839Z,26.60
2018-09-09T15:18:48.710Z,26.60
2018-09-09T15:21:18.699Z,26.60
2018-09-09T15:23:48.839Z,26.60
2018-09-09T15:26:18.768Z,26.60
2018-09-09T15:28:48.701Z,26.60
2018-09-09T15:31:18.539Z,26.60
2018-09-09T15:33:48.414Z,26.60
2018-09-09T15:36:18.282Z,26.60
2018-09-09T15:38:48.192Z,26.60
2018-09-09T15:41:18.081Z,26.60
2018-09-09T15:43:47.947Z,26.60
2018-09-09T15:46:17.823Z,26.60
2018-09-09T15:48:47.710Z,26.60
2018-09-09T15:51:17.802Z,26.60
2018-09-09T15:53:48.117Z,26.60
2018-09-09T15:56:19.222Z,26.60
2018-09-09T15:58:49.580Z,26.60
2018-09-09T16:01:20.152Z,26.60
2018-09-09T16:03:50.404Z,26.60
2018-09-09T16:06:20.832Z,26.60
2018-09-09T16:08:50.919Z,26.60
2018-09-09T16:11:20.874Z,26.50
2018-09-09T16:13:51.423Z,26.60
2018-09-09T16:16:24.006Z,26.50
2018-09-09T16:18:53.895Z,26.50
2018-09-09T16:21:23.771Z,26.50
2018-09-09T16:23:53.683Z,26.50
2018-09-09T16:26:23.555Z,26.50
2018-09-09T16:28:53.445Z,26.50
2018-09-09T16:31:23.324Z,26.40
2018-09-09T16:33:53.195Z,26.40
2018-09-09T16:36:23.150Z,26.40
2018-09-09T16:38:53.104Z,26.40
2018-09-09T16:41:22.987Z,26.30
2018-09-09T16:43:52.858Z,26.30
2018-09-09T16:46:22.735Z,26.30
2018-09-09T16:48:52.628Z,26.30
2018-09-09T16:51:22.562Z,26.30
2018-09-09T16:53:52.434Z,26.30
2018-09-09T16:56:22.296Z,26.20
2018-09-09T16:58:52.198Z,26.20
2018-09-09T17:01:22.147Z,26.20
2018-09-09T17:03:51.978Z,26.10
2018-09-09T17:06:21.847Z,26.20
2018-09-09T17:08:51.754Z,26.10
2018-09-09T17:11:21.700Z,26.10
2018-09-09T17:13:51.609Z,26.10
2018-09-09T17:16:21.507Z,26.10
2018-09-09T17:18:51.733Z,26.10
2018-09-09T17:21:22.463Z,26.10
2018-09-09T17:23:53.090Z,26.10
2018-09-09T17:26:23.266Z,26.00
2018-09-09T17:28:53.731Z,26.00
2018-09-09T17:31:24.165Z,26.00
2018-09-09T17:33:55.279Z,26.00
2018-09-09T17:36:25.178Z,25.90
2018-09-09T17:39:00.450Z,25.90
2018-09-09T17:41:31.078Z,25.90
2018-09-09T17:44:02.813Z,25.90
2018-09-09T17:46:33.884Z,25.80
2018-09-09T17:49:05.431Z,25.80
2018-09-09T17:51:36.967Z,25.80
2018-09-09T17:54:06.951Z,25.70
2018-09-09T17:56:37.831Z,25.70
2018-09-09T17:59:07.811Z,25.70
2018-09-09T18:01:38.327Z,25.70
2018-09-09T18:04:09.721Z,25.60
2018-09-09T18:06:39.799Z,25.60
2018-09-09T18:09:10.431Z,25.60
2018-09-09T18:11:41.230Z,25.50
2018-09-09T18:14:11.235Z,25.50
2018-09-09T18:16:41.109Z,25.40
2018-09-09T18:19:11.903Z,25.40
2018-09-09T18:21:41.886Z,25.40
2018-09-09T18:24:11.843Z,25.40
2018-09-09T18:26:41.758Z,25.30
2018-09-09T18:29:11.741Z,25.30
2018-09-09T18:31:41.734Z,25.30
2018-09-09T18:34:11.675Z,25.20
2018-09-09T18:36:41.610Z,25.20
2018-09-09T18:39:11.829Z,25.20
2018-09-09T18:41:41.587Z,25.10
2018-09-09T18:44:11.458Z,25.10
2018-09-09T18:46:41.340Z,25.00
2018-09-09T18:49:11.553Z,25.00
2018-09-09T18:51:41.444Z,25.00
2018-09-09T18:54:11.322Z,24.90
2018-09-09T18:56:41.263Z,24.90
2018-09-09T18:59:11.121Z,24.80
2018-09-09T19:01:41.007Z,24.80
2018-09-09T19:04:10.882Z,24.70
2018-09-09T19:06:47.593Z,24.70
2018-09-09T19:09:17.518Z,24.60
2018-09-09T19:11:47.418Z,24.60
2018-09-09T19:14:17.323Z,24.60
2018-09-09T19:16:47.263Z,24.60
2018-09-09T19:19:17.230Z,24.50
2018-09-09T19:21:47.210Z,24.50
2018-09-09T19:24:17.053Z,24.50
2018-09-09T19:26:46.976Z,24.40
2018-09-09T19:29:16.886Z,24.40
2018-09-09T19:31:46.778Z,24.40
2018-09-09T19:34:16.672Z,24.30
2018-09-09T19:36:46.640Z,24.30
2018-09-09T19:39:16.556Z,24.30
2018-09-09T19:41:46.467Z,24.20
2018-09-09T19:44:16.419Z,24.20
2018-09-09T19:46:46.309Z,24.20
2018-09-09T19:49:16.211Z,24.10
2018-09-09T19:51:46.175Z,24.10
2018-09-09T19:54:16.092Z,24.10
2018-09-09T19:56:47.019Z,24.00
2018-09-09T19:59:16.924Z,24.00
2018-09-09T20:01:46.832Z,23.90
2018-09-09T20:04:16.727Z,23.90
2018-09-09T20:06:46.647Z,23.90
2018-09-09T20:09:16.560Z,23.80
2018-09-09T20:11:46.454Z,23.80
2018-09-09T20:14:16.346Z,23.80
2018-09-09T20:16:46.259Z,23.80
2018-09-09T20:19:16.155Z,23.80
2018-09-09T20:21:46.074Z,23.70
2018-09-09T20:24:15.967Z,23.70
2018-09-09T20:26:45.886Z,23.70
2018-09-09T20:29:15.806Z,23.70
2018-09-09T20:31:45.711Z,23.70
2018-09-09T20:34:15.618Z,23.60
2018-09-09T20:36:45.530Z,23.60
2018-09-09T20:39:15.443Z,23.60
2018-09-09T20:41:45.346Z,23.60
2018-09-09T20:44:15.231Z,23.50
2018-09-09T20:46:45.123Z,23.50
2018-09-09T20:49:15.026Z,23.50
2018-09-09T20:51:44.938Z,23.50
2018-09-09T20:54:14.853Z,23.40
2018-09-09T20:56:44.756Z,23.40
2018-09-09T20:59:14.666Z,23.30
2018-09-09T21:01:44.571Z,23.30
2018-09-09T21:04:14.478Z,23.30
2018-09-09T21:06:45.440Z,23.20
2018-09-09T21:09:15.371Z,23.20
2018-09-09T21:11:45.270Z,23.10
2018-09-09T21:14:15.185Z,23.10
2018-09-09T21:16:45.119Z,23.10
2018-09-09T21:19:15.003Z,23.00
2018-09-09T21:21:44.918Z,23.00
2018-09-09T21:24:14.819Z,23.00
2018-09-09T21:26:44.814Z,23.00
2018-09-09T21:29:14.759Z,23.00
2018-09-09T21:31:44.666Z,22.90
2018-09-09T21:34:14.639Z,23.00
2018-09-09T21:36:44.651Z,22.90
2018-09-09T21:39:14.511Z,22.90
2018-09-09T21:41:51.139Z,22.90
2018-09-09T21:44:21.111Z,22.90
2018-09-09T21:46:51.027Z,22.90
2018-09-09T21:49:21.003Z,22.80
2018-09-09T21:51:50.904Z,22.80
2018-09-09T21:54:20.803Z,22.80
2018-09-09T21:56:50.706Z,22.70
2018-09-09T21:59:20.610Z,22.70
2018-09-09T22:01:55.689Z,22.70
2018-09-09T22:04:25.578Z,22.60
2018-09-09T22:06:55.490Z,22.60
2018-09-09T22:09:25.456Z,22.60
2018-09-09T22:11:55.350Z,22.60
2018-09-09T22:14:25.218Z,22.60
2018-09-09T22:16:55.123Z,22.60
2018-09-09T22:19:24.990Z,22.50
2018-09-09T22:21:54.874Z,22.50
2018-09-09T22:24:24.760Z,22.50
2018-09-09T22:26:54.639Z,22.40
2018-09-09T22:29:24.520Z,22.40
2018-09-09T22:31:54.401Z,22.40
2018-09-09T22:34:24.269Z,22.30
2018-09-09T22:36:54.146Z,22.30
2018-09-09T22:39:24.019Z,22.30
2018-09-09T22:41:53.891Z,22.30
2018-09-09T22:44:23.820Z,22.30
2018-09-09T22:46:53.703Z,22.20
2018-09-09T22:49:23.585Z,22.20
2018-09-09T22:51:53.471Z,22.20
2018-09-09T22:54:23.355Z,22.20
2018-09-09T22:56:53.239Z,22.20
2018-09-09T22:59:23.131Z,22.20
2018-09-09T23:01:53.008Z,22.20
2018-09-09T23:04:22.884Z,22.20
2018-09-09T23:06:59.543Z,22.20
2018-09-09T23:09:29.440Z,22.10
2018-09-09T23:11:59.351Z,22.10
2018-09-09T23:14:29.252Z,22.10
2018-09-09T23:16:59.162Z,22.10
2018-09-09T23:19:29.057Z,22.00
2018-09-09T23:21:58.971Z,22.00
2018-09-09T23:24:28.863Z,22.00
2018-09-09T23:26:58.771Z,22.00
2018-09-09T23:29:28.674Z,21.90
2018-09-09T23:31:58.575Z,21.90
2018-09-09T23:34:28.575Z,21.80
2018-09-09T23:36:58.492Z,21.80
2018-09-09T23:39:28.392Z,21.80
2018-09-09T23:41:58.300Z,21.80
2018-09-09T23:44:28.192Z,21.80
2018-09-09T23:46:58.103Z,21.80
2018-09-09T23:49:28.019Z,21.80
2018-09-09T23:51:57.934Z,21.70
2018-09-09T23:54:27.891Z,21.70
2018-09-09T23:56:57.796Z,21.70
2018-09-09T23:59:27.699Z,21.70
